sensor_id;sensor_type;location;lat;lon;timestamp;P1;durP1;ratioP1;P2;durP2;ratioP2
3487;SDS011;38546;48.170;11.724;2023-08-12T00:01:30;8.13;;;5.70;;
3487;SDS011;38546;48.170;11.724;2023-08-12T00:04:19;6.13;;;5.53;;
3487;SDS011;38546;48.170;11.724;2023-08-12T00:07:08;6.40;;;5.67;;
3487;SDS011;38546;48.170;11.724;2023-08-12T00:09:58;5.77;;;5.10;;
3487;SDS011;38546;48.170;11.724;2023-08-12T00:12:52;6.00;;;5.40;;
3487;SDS011;38546;48.170;11.724;2023-08-12T00:15:42;5.83;;;5.23;;
3487;SDS011;38546;48.170;11.724;2023-08-12T00:18:32;5.70;;;5.10;;
3487;SDS011;38546;48.170;11.724;2023-08-12T00:21:25;6.03;;;5.43;;
3487;SDS011;38546;48.170;11.724;2023-08-12T00:24:15;6.10;;;5.40;;
3487;SDS011;38546;48.170;11.724;2023-08-12T00:27:05;6.80;;;5.70;;
3487;SDS011;38546;48.170;11.724;2023-08-12T00:29:55;8.70;;;5.70;;
3487;SDS011;38546;48.170;11.724;2023-08-12T00:32:44;6.67;;;6.07;;
3487;SDS011;38546;48.170;11.724;2023-08-12T00:35:34;6.27;;;5.63;;
3487;SDS011;38546;48.170;11.724;2023-08-12T00:38:23;8.67;;;6.03;;
3487;SDS011;38546;48.170;11.724;2023-08-12T00:41:14;6.60;;;5.50;;
3487;SDS011;38546;48.170;11.724;2023-08-12T00:44:03;6.00;;;5.33;;
3487;SDS011;38546;48.170;11.724;2023-08-12T00:46:53;7.47;;;6.00;;
3487;SDS011;38546;48.170;11.724;2023-08-12T00:49:43;6.93;;;5.50;;
3487;SDS011;38546;48.170;11.724;2023-08-12T00:52:34;5.67;;;5.17;;
3487;SDS011;38546;48.170;11.724;2023-08-12T00:55:23;6.80;;;6.10;;
3487;SDS011;38546;48.170;11.724;2023-08-12T00:58:13;5.57;;;5.07;;
3487;SDS011;38546;48.170;11.724;2023-08-12T01:01:02;5.60;;;5.07;;
3487;SDS011;38546;48.170;11.724;2023-08-12T01:03:52;7.17;;;6.13;;
3487;SDS011;38546;48.170;11.724;2023-08-12T01:06:41;6.20;;;5.60;;
3487;SDS011;38546;48.170;11.724;2023-08-12T01:09:30;6.17;;;5.57;;
3487;SDS011;38546;48.170;11.724;2023-08-12T01:12:24;7.37;;;6.07;;
3487;SDS011;38546;48.170;11.724;2023-08-12T01:15:23;7.33;;;5.40;;
3487;SDS011;38546;48.170;11.724;2023-08-12T01:18:14;6.60;;;5.87;;
3487;SDS011;38546;48.170;11.724;2023-08-12T01:21:05;6.03;;;5.20;;
3487;SDS011;38546;48.170;11.724;2023-08-12T01:24:01;6.33;;;5.73;;
3487;SDS011;38546;48.170;11.724;2023-08-12T01:26:51;6.63;;;6.00;;
3487;SDS011;38546;48.170;11.724;2023-08-12T01:29:41;10.00;;;4.73;;
3487;SDS011;38546;48.170;11.724;2023-08-12T01:32:46;5.80;;;4.70;;
3487;SDS011;38546;48.170;11.724;2023-08-12T01:36:00;8.03;;;4.90;;
3487;SDS011;38546;48.170;11.724;2023-08-12T01:38:59;6.40;;;5.60;;
3487;SDS011;38546;48.170;11.724;2023-08-12T01:41:50;5.80;;;5.30;;
3487;SDS011;38546;48.170;11.724;2023-08-12T01:44:40;7.67;;;5.33;;
3487;SDS011;38546;48.170;11.724;2023-08-12T01:47:30;5.50;;;5.00;;
3487;SDS011;38546;48.170;11.724;2023-08-12T01:50:19;5.33;;;4.90;;
3487;SDS011;38546;48.170;11.724;2023-08-12T01:53:10;6.57;;;5.53;;
3487;SDS011;38546;48.170;11.724;2023-08-12T01:55:59;6.33;;;5.57;;
3487;SDS011;38546;48.170;11.724;2023-08-12T01:58:49;8.50;;;6.10;;
3487;SDS011;38546;48.170;11.724;2023-08-12T02:01:38;7.23;;;5.23;;
3487;SDS011;38546;48.170;11.724;2023-08-12T02:04:27;8.17;;;5.73;;
3487;SDS011;38546;48.170;11.724;2023-08-12T02:07:16;8.10;;;6.03;;
3487;SDS011;38546;48.170;11.724;2023-08-12T02:10:06;7.30;;;5.83;;
3487;SDS011;38546;48.170;11.724;2023-08-12T02:12:56;7.43;;;5.90;;
3487;SDS011;38546;48.170;11.724;2023-08-12T02:15:45;6.27;;;5.67;;
3487;SDS011;38546;48.170;11.724;2023-08-12T02:18:34;6.60;;;5.73;;
3487;SDS011;38546;48.170;11.724;2023-08-12T02:21:24;7.87;;;6.93;;
3487;SDS011;38546;48.170;11.724;2023-08-12T02:24:14;6.73;;;5.87;;
3487;SDS011;38546;48.170;11.724;2023-08-12T02:27:03;9.40;;;6.63;;
3487;SDS011;38546;48.170;11.724;2023-08-12T02:29:52;8.00;;;6.83;;
3487;SDS011;38546;48.170;11.724;2023-08-12T02:32:42;8.80;;;7.03;;
3487;SDS011;38546;48.170;11.724;2023-08-12T02:35:32;7.87;;;6.40;;
3487;SDS011;38546;48.170;11.724;2023-08-12T02:38:21;8.07;;;7.30;;
3487;SDS011;38546;48.170;11.724;2023-08-12T02:41:10;8.73;;;7.00;;
3487;SDS011;38546;48.170;11.724;2023-08-12T02:44:00;9.73;;;7.17;;
3487;SDS011;38546;48.170;11.724;2023-08-12T02:46:49;8.00;;;7.20;;
3487;SDS011;38546;48.170;11.724;2023-08-12T02:49:38;9.27;;;7.00;;
3487;SDS011;38546;48.170;11.724;2023-08-12T02:52:27;9.90;;;7.03;;
3487;SDS011;38546;48.170;11.724;2023-08-12T02:55:16;9.67;;;7.53;;
3487;SDS011;38546;48.170;11.724;2023-08-12T02:58:05;8.73;;;7.00;;
3487;SDS011;38546;48.170;11.724;2023-08-12T03:00:55;8.47;;;6.80;;
3487;SDS011;38546;48.170;11.724;2023-08-12T03:03:44;9.33;;;6.90;;
3487;SDS011;38546;48.170;11.724;2023-08-12T03:06:33;6.87;;;6.23;;
3487;SDS011;38546;48.170;11.724;2023-08-12T03:09:22;9.70;;;7.87;;
3487;SDS011;38546;48.170;11.724;2023-08-12T03:12:12;9.60;;;6.50;;
3487;SDS011;38546;48.170;11.724;2023-08-12T03:15:01;7.63;;;6.00;;
3487;SDS011;38546;48.170;11.724;2023-08-12T03:17:52;7.63;;;6.90;;
3487;SDS011;38546;48.170;11.724;2023-08-12T03:20:41;7.83;;;7.00;;
3487;SDS011;38546;48.170;11.724;2023-08-12T03:23:30;7.47;;;6.03;;
3487;SDS011;38546;48.170;11.724;2023-08-12T03:26:20;7.03;;;6.33;;
3487;SDS011;38546;48.170;11.724;2023-08-12T03:29:09;7.17;;;6.47;;
3487;SDS011;38546;48.170;11.724;2023-08-12T03:31:58;8.13;;;6.77;;
3487;SDS011;38546;48.170;11.724;2023-08-12T03:34:47;8.60;;;6.87;;
3487;SDS011;38546;48.170;11.724;2023-08-12T03:37:37;8.80;;;6.60;;
3487;SDS011;38546;48.170;11.724;2023-08-12T03:40:26;8.23;;;6.97;;
3487;SDS011;38546;48.170;11.724;2023-08-12T03:43:15;12.40;;;7.53;;
3487;SDS011;38546;48.170;11.724;2023-08-12T03:46:05;8.97;;;7.40;;
3487;SDS011;38546;48.170;11.724;2023-08-12T03:48:54;9.80;;;7.10;;
3487;SDS011;38546;48.170;11.724;2023-08-12T03:51:43;8.77;;;6.97;;
3487;SDS011;38546;48.170;11.724;2023-08-12T03:54:33;8.63;;;6.23;;
3487;SDS011;38546;48.170;11.724;2023-08-12T03:57:22;9.03;;;7.47;;
3487;SDS011;38546;48.170;11.724;2023-08-12T04:00:12;10.60;;;7.03;;
3487;SDS011;38546;48.170;11.724;2023-08-12T04:03:02;8.03;;;7.23;;
3487;SDS011;38546;48.170;11.724;2023-08-12T04:05:52;8.80;;;6.87;;
3487;SDS011;38546;48.170;11.724;2023-08-12T04:08:45;7.80;;;6.47;;
3487;SDS011;38546;48.170;11.724;2023-08-12T04:11:34;9.10;;;5.80;;
3487;SDS011;38546;48.170;11.724;2023-08-12T04:14:23;7.00;;;6.30;;
3487;SDS011;38546;48.170;11.724;2023-08-12T04:17:12;7.33;;;6.00;;
3487;SDS011;38546;48.170;11.724;2023-08-12T04:20:02;8.10;;;6.20;;
3487;SDS011;38546;48.170;11.724;2023-08-12T04:22:55;7.30;;;6.30;;
3487;SDS011;38546;48.170;11.724;2023-08-12T04:25:44;6.90;;;6.20;;
3487;SDS011;38546;48.170;11.724;2023-08-12T04:28:37;11.53;;;7.10;;
3487;SDS011;38546;48.170;11.724;2023-08-12T04:31:26;7.47;;;6.77;;
3487;SDS011;38546;48.170;11.724;2023-08-12T04:34:15;8.23;;;6.83;;
3487;SDS011;38546;48.170;11.724;2023-08-12T04:37:05;10.80;;;6.77;;
3487;SDS011;38546;48.170;11.724;2023-08-12T04:39:54;8.50;;;6.53;;
3487;SDS011;38546;48.170;11.724;2023-08-12T04:42:43;9.33;;;6.40;;
3487;SDS011;38546;48.170;11.724;2023-08-12T04:45:33;6.63;;;6.00;;
3487;SDS011;38546;48.170;11.724;2023-08-12T04:48:22;11.30;;;7.30;;
3487;SDS011;38546;48.170;11.724;2023-08-12T04:51:11;8.60;;;6.73;;
3487;SDS011;38546;48.170;11.724;2023-08-12T04:54:01;8.20;;;7.20;;
3487;SDS011;38546;48.170;11.724;2023-08-12T04:56:50;15.53;;;6.83;;
3487;SDS011;38546;48.170;11.724;2023-08-12T04:59:40;9.63;;;7.80;;
3487;SDS011;38546;48.170;11.724;2023-08-12T05:02:29;9.07;;;7.57;;
3487;SDS011;38546;48.170;11.724;2023-08-12T05:05:18;11.70;;;8.53;;
3487;SDS011;38546;48.170;11.724;2023-08-12T05:08:08;9.23;;;7.57;;
3487;SDS011;38546;48.170;11.724;2023-08-12T05:10:58;8.30;;;7.30;;
3487;SDS011;38546;48.170;11.724;2023-08-12T05:13:47;8.17;;;7.23;;
3487;SDS011;38546;48.170;11.724;2023-08-12T05:16:36;9.67;;;7.30;;
3487;SDS011;38546;48.170;11.724;2023-08-12T05:19:26;9.10;;;7.40;;
3487;SDS011;38546;48.170;11.724;2023-08-12T05:22:15;9.50;;;7.73;;
3487;SDS011;38546;48.170;11.724;2023-08-12T05:25:05;7.87;;;6.77;;
3487;SDS011;38546;48.170;11.724;2023-08-12T05:27:55;8.03;;;6.97;;
3487;SDS011;38546;48.170;11.724;2023-08-12T05:30:45;10.87;;;7.80;;
3487;SDS011;38546;48.170;11.724;2023-08-12T05:33:34;9.50;;;7.57;;
3487;SDS011;38546;48.170;11.724;2023-08-12T05:36:23;9.33;;;8.30;;
3487;SDS011;38546;48.170;11.724;2023-08-12T05:39:12;7.90;;;7.10;;
3487;SDS011;38546;48.170;11.724;2023-08-12T05:42:01;9.90;;;7.37;;
3487;SDS011;38546;48.170;11.724;2023-08-12T05:44:51;8.53;;;7.23;;
3487;SDS011;38546;48.170;11.724;2023-08-12T05:47:40;9.17;;;7.43;;
3487;SDS011;38546;48.170;11.724;2023-08-12T05:50:30;9.90;;;7.73;;
3487;SDS011;38546;48.170;11.724;2023-08-12T05:53:19;9.30;;;7.90;;
3487;SDS011;38546;48.170;11.724;2023-08-12T05:56:10;8.17;;;6.90;;
3487;SDS011;38546;48.170;11.724;2023-08-12T05:58:59;7.27;;;6.47;;
3487;SDS011;38546;48.170;11.724;2023-08-12T06:01:49;8.50;;;6.70;;
3487;SDS011;38546;48.170;11.724;2023-08-12T06:04:38;7.80;;;6.30;;
3487;SDS011;38546;48.170;11.724;2023-08-12T06:07:27;8.20;;;6.60;;
3487;SDS011;38546;48.170;11.724;2023-08-12T06:10:16;7.00;;;6.30;;
3487;SDS011;38546;48.170;11.724;2023-08-12T06:13:05;8.07;;;6.90;;
3487;SDS011;38546;48.170;11.724;2023-08-12T06:15:53;7.80;;;6.67;;
3487;SDS011;38546;48.170;11.724;2023-08-12T06:18:42;8.97;;;6.60;;
3487;SDS011;38546;48.170;11.724;2023-08-12T06:21:31;8.20;;;7.37;;
3487;SDS011;38546;48.170;11.724;2023-08-12T06:24:20;7.47;;;6.43;;
3487;SDS011;38546;48.170;11.724;2023-08-12T06:27:09;8.23;;;6.67;;
3487;SDS011;38546;48.170;11.724;2023-08-12T06:29:58;7.83;;;5.73;;
3487;SDS011;38546;48.170;11.724;2023-08-12T06:32:47;5.77;;;5.27;;
3487;SDS011;38546;48.170;11.724;2023-08-12T06:35:36;7.33;;;6.30;;
3487;SDS011;38546;48.170;11.724;2023-08-12T06:38:25;5.43;;;4.93;;
3487;SDS011;38546;48.170;11.724;2023-08-12T06:41:14;6.00;;;5.43;;
3487;SDS011;38546;48.170;11.724;2023-08-12T06:44:03;5.93;;;5.43;;
3487;SDS011;38546;48.170;11.724;2023-08-12T06:46:53;5.80;;;5.30;;
3487;SDS011;38546;48.170;11.724;2023-08-12T06:49:41;5.63;;;5.13;;
3487;SDS011;38546;48.170;11.724;2023-08-12T06:52:30;6.27;;;5.67;;
3487;SDS011;38546;48.170;11.724;2023-08-12T06:55:19;6.40;;;5.80;;
3487;SDS011;38546;48.170;11.724;2023-08-12T06:58:08;5.70;;;5.20;;
3487;SDS011;38546;48.170;11.724;2023-08-12T07:00:57;5.50;;;5.00;;
3487;SDS011;38546;48.170;11.724;2023-08-12T07:03:47;6.10;;;5.23;;
3487;SDS011;38546;48.170;11.724;2023-08-12T07:06:36;5.13;;;4.70;;
3487;SDS011;38546;48.170;11.724;2023-08-12T07:09:25;5.67;;;5.17;;
3487;SDS011;38546;48.170;11.724;2023-08-12T07:12:14;5.30;;;4.90;;
3487;SDS011;38546;48.170;11.724;2023-08-12T07:15:03;5.80;;;5.00;;
3487;SDS011;38546;48.170;11.724;2023-08-12T07:17:53;5.73;;;5.20;;
3487;SDS011;38546;48.170;11.724;2023-08-12T07:20:42;5.07;;;4.67;;
3487;SDS011;38546;48.170;11.724;2023-08-12T07:23:31;6.17;;;5.57;;
3487;SDS011;38546;48.170;11.724;2023-08-12T07:26:20;4.37;;;3.97;;
3487;SDS011;38546;48.170;11.724;2023-08-12T07:29:09;5.60;;;5.10;;
3487;SDS011;38546;48.170;11.724;2023-08-12T07:31:58;4.90;;;4.40;;
3487;SDS011;38546;48.170;11.724;2023-08-12T07:34:47;6.07;;;5.47;;
3487;SDS011;38546;48.170;11.724;2023-08-12T07:37:36;5.70;;;5.20;;
3487;SDS011;38546;48.170;11.724;2023-08-12T07:40:25;5.30;;;4.80;;
3487;SDS011;38546;48.170;11.724;2023-08-12T07:43:14;5.20;;;4.40;;
3487;SDS011;38546;48.170;11.724;2023-08-12T07:46:03;5.47;;;5.07;;
3487;SDS011;38546;48.170;11.724;2023-08-12T07:48:52;5.67;;;5.13;;
3487;SDS011;38546;48.170;11.724;2023-08-12T07:51:42;5.53;;;5.07;;
3487;SDS011;38546;48.170;11.724;2023-08-12T07:54:30;4.97;;;4.50;;
3487;SDS011;38546;48.170;11.724;2023-08-12T07:57:19;5.30;;;4.90;;
3487;SDS011;38546;48.170;11.724;2023-08-12T08:00:12;5.47;;;4.87;;
3487;SDS011;38546;48.170;11.724;2023-08-12T08:03:02;5.17;;;4.77;;
3487;SDS011;38546;48.170;11.724;2023-08-12T08:05:52;5.50;;;4.90;;
3487;SDS011;38546;48.170;11.724;2023-08-12T08:08:42;4.90;;;4.50;;
3487;SDS011;38546;48.170;11.724;2023-08-12T08:11:31;5.20;;;4.80;;
3487;SDS011;38546;48.170;11.724;2023-08-12T08:14:21;6.13;;;5.57;;
3487;SDS011;38546;48.170;11.724;2023-08-12T08:17:10;5.53;;;5.10;;
3487;SDS011;38546;48.170;11.724;2023-08-12T08:19:59;5.00;;;4.60;;
3487;SDS011;38546;48.170;11.724;2023-08-12T08:22:48;5.37;;;4.87;;
3487;SDS011;38546;48.170;11.724;2023-08-12T08:25:38;5.30;;;4.90;;
3487;SDS011;38546;48.170;11.724;2023-08-12T08:28:27;5.37;;;4.97;;
3487;SDS011;38546;48.170;11.724;2023-08-12T08:31:16;5.07;;;4.73;;
3487;SDS011;38546;48.170;11.724;2023-08-12T08:34:06;6.43;;;5.80;;
3487;SDS011;38546;48.170;11.724;2023-08-12T08:36:55;5.30;;;4.90;;
3487;SDS011;38546;48.170;11.724;2023-08-12T08:39:45;6.57;;;5.00;;
3487;SDS011;38546;48.170;11.724;2023-08-12T08:42:35;5.63;;;5.20;;
3487;SDS011;38546;48.170;11.724;2023-08-12T08:45:26;6.10;;;5.50;;
3487;SDS011;38546;48.170;11.724;2023-08-12T08:48:17;10.03;;;6.03;;
3487;SDS011;38546;48.170;11.724;2023-08-12T08:51:09;6.30;;;5.70;;
3487;SDS011;38546;48.170;11.724;2023-08-12T08:54:01;5.30;;;4.80;;
3487;SDS011;38546;48.170;11.724;2023-08-12T08:56:52;6.33;;;5.53;;
3487;SDS011;38546;48.170;11.724;2023-08-12T08:59:42;5.97;;;5.47;;
3487;SDS011;38546;48.170;11.724;2023-08-12T09:02:31;6.43;;;5.57;;
3487;SDS011;38546;48.170;11.724;2023-08-12T09:05:21;6.23;;;5.63;;
3487;SDS011;38546;48.170;11.724;2023-08-12T09:08:10;7.93;;;5.80;;
3487;SDS011;38546;48.170;11.724;2023-08-12T09:11:01;5.77;;;5.27;;
3487;SDS011;38546;48.170;11.724;2023-08-12T09:13:52;6.80;;;6.10;;
3487;SDS011;38546;48.170;11.724;2023-08-12T09:16:42;5.43;;;5.03;;
3487;SDS011;38546;48.170;11.724;2023-08-12T09:19:31;6.43;;;5.80;;
3487;SDS011;38546;48.170;11.724;2023-08-12T09:22:20;6.57;;;5.97;;
3487;SDS011;38546;48.170;11.724;2023-08-12T09:25:14;6.77;;;6.17;;
3487;SDS011;38546;48.170;11.724;2023-08-12T09:28:04;6.97;;;6.27;;
3487;SDS011;38546;48.170;11.724;2023-08-12T09:30:53;6.80;;;6.03;;
3487;SDS011;38546;48.170;11.724;2023-08-12T09:33:42;8.10;;;5.67;;
3487;SDS011;38546;48.170;11.724;2023-08-12T09:36:31;6.53;;;5.93;;
3487;SDS011;38546;48.170;11.724;2023-08-12T09:39:22;5.90;;;5.40;;
3487;SDS011;38546;48.170;11.724;2023-08-12T09:42:11;6.20;;;5.60;;
3487;SDS011;38546;48.170;11.724;2023-08-12T09:45:01;6.30;;;5.70;;
3487;SDS011;38546;48.170;11.724;2023-08-12T09:47:51;6.57;;;5.93;;
3487;SDS011;38546;48.170;11.724;2023-08-12T09:50:42;6.10;;;5.60;;
3487;SDS011;38546;48.170;11.724;2023-08-12T09:53:32;6.27;;;5.67;;
3487;SDS011;38546;48.170;11.724;2023-08-12T09:56:22;6.43;;;5.70;;
3487;SDS011;38546;48.170;11.724;2023-08-12T09:59:12;5.90;;;5.40;;
3487;SDS011;38546;48.170;11.724;2023-08-12T10:02:06;6.10;;;5.60;;
3487;SDS011;38546;48.170;11.724;2023-08-12T10:04:56;7.13;;;6.50;;
3487;SDS011;38546;48.170;11.724;2023-08-12T10:07:47;6.30;;;5.80;;
3487;SDS011;38546;48.170;11.724;2023-08-12T10:10:37;6.23;;;5.63;;
3487;SDS011;38546;48.170;11.724;2023-08-12T10:13:28;8.10;;;6.23;;
3487;SDS011;38546;48.170;11.724;2023-08-12T10:16:18;5.87;;;5.37;;
3487;SDS011;38546;48.170;11.724;2023-08-12T10:19:10;7.17;;;6.47;;
3487;SDS011;38546;48.170;11.724;2023-08-12T10:22:00;5.73;;;5.23;;
3487;SDS011;38546;48.170;11.724;2023-08-12T10:24:52;6.43;;;5.90;;
3487;SDS011;38546;48.170;11.724;2023-08-12T10:27:41;6.50;;;6.00;;
3487;SDS011;38546;48.170;11.724;2023-08-12T10:30:30;6.03;;;5.53;;
3487;SDS011;38546;48.170;11.724;2023-08-12T10:33:20;6.80;;;6.10;;
3487;SDS011;38546;48.170;11.724;2023-08-12T10:36:10;6.40;;;5.80;;
3487;SDS011;38546;48.170;11.724;2023-08-12T10:39:00;6.93;;;6.23;;
3487;SDS011;38546;48.170;11.724;2023-08-12T10:41:51;5.87;;;5.47;;
3487;SDS011;38546;48.170;11.724;2023-08-12T10:44:50;8.43;;;5.87;;
3487;SDS011;38546;48.170;11.724;2023-08-12T10:47:41;6.00;;;5.50;;
3487;SDS011;38546;48.170;11.724;2023-08-12T10:50:35;6.30;;;5.80;;
3487;SDS011;38546;48.170;11.724;2023-08-12T10:53:25;7.77;;;5.90;;
3487;SDS011;38546;48.170;11.724;2023-08-12T10:56:20;6.03;;;5.53;;
3487;SDS011;38546;48.170;11.724;2023-08-12T10:59:09;6.47;;;5.53;;
3487;SDS011;38546;48.170;11.724;2023-08-12T11:02:48;5.30;;;4.90;;
3487;SDS011;38546;48.170;11.724;2023-08-12T11:05:40;5.70;;;5.20;;
3487;SDS011;38546;48.170;11.724;2023-08-12T11:08:29;5.73;;;5.23;;
3487;SDS011;38546;48.170;11.724;2023-08-12T11:11:22;8.13;;;5.43;;
3487;SDS011;38546;48.170;11.724;2023-08-12T11:14:14;5.67;;;4.73;;
3487;SDS011;38546;48.170;11.724;2023-08-12T11:17:11;7.53;;;5.60;;
3487;SDS011;38546;48.170;11.724;2023-08-12T11:20:04;7.77;;;5.77;;
3487;SDS011;38546;48.170;11.724;2023-08-12T11:22:56;5.90;;;5.40;;
3487;SDS011;38546;48.170;11.724;2023-08-12T11:25:47;6.00;;;5.43;;
3487;SDS011;38546;48.170;11.724;2023-08-12T11:28:38;5.70;;;5.20;;
3487;SDS011;38546;48.170;11.724;2023-08-12T11:31:28;6.17;;;5.40;;
3487;SDS011;38546;48.170;11.724;2023-08-12T11:34:18;5.50;;;5.10;;
3487;SDS011;38546;48.170;11.724;2023-08-12T11:37:07;5.57;;;5.07;;
3487;SDS011;38546;48.170;11.724;2023-08-12T11:39:57;5.73;;;5.33;;
3487;SDS011;38546;48.170;11.724;2023-08-12T11:42:48;5.50;;;5.00;;
3487;SDS011;38546;48.170;11.724;2023-08-12T11:45:41;4.80;;;4.40;;
3487;SDS011;38546;48.170;11.724;2023-08-12T11:48:31;5.47;;;4.87;;
3487;SDS011;38546;48.170;11.724;2023-08-12T11:51:21;5.20;;;4.87;;
3487;SDS011;38546;48.170;11.724;2023-08-12T11:54:11;5.87;;;5.30;;
3487;SDS011;38546;48.170;11.724;2023-08-12T11:57:00;4.80;;;4.40;;
3487;SDS011;38546;48.170;11.724;2023-08-12T11:59:50;4.83;;;4.43;;
3487;SDS011;38546;48.170;11.724;2023-08-12T12:02:40;7.03;;;4.17;;
3487;SDS011;38546;48.170;11.724;2023-08-12T12:05:36;5.60;;;5.10;;
3487;SDS011;38546;48.170;11.724;2023-08-12T12:08:25;5.67;;;4.33;;
3487;SDS011;38546;48.170;11.724;2023-08-12T12:11:19;5.37;;;4.87;;
3487;SDS011;38546;48.170;11.724;2023-08-12T12:14:09;4.83;;;4.43;;
3487;SDS011;38546;48.170;11.724;2023-08-12T12:16:59;4.53;;;4.13;;
3487;SDS011;38546;48.170;11.724;2023-08-12T12:19:56;4.97;;;4.57;;
3487;SDS011;38546;48.170;11.724;2023-08-12T12:22:47;5.50;;;5.00;;
3487;SDS011;38546;48.170;11.724;2023-08-12T12:25:38;5.10;;;4.60;;
3487;SDS011;38546;48.170;11.724;2023-08-12T12:28:30;5.30;;;4.80;;
3487;SDS011;38546;48.170;11.724;2023-08-12T12:31:19;4.30;;;4.00;;
3487;SDS011;38546;48.170;11.724;2023-08-12T12:34:08;5.07;;;4.37;;
3487;SDS011;38546;48.170;11.724;2023-08-12T12:36:58;7.67;;;4.77;;
3487;SDS011;38546;48.170;11.724;2023-08-12T12:39:47;4.70;;;4.30;;
3487;SDS011;38546;48.170;11.724;2023-08-12T12:42:36;4.70;;;4.30;;
3487;SDS011;38546;48.170;11.724;2023-08-12T12:45:27;4.37;;;4.00;;
3487;SDS011;38546;48.170;11.724;2023-08-12T12:48:16;4.97;;;4.57;;
3487;SDS011;38546;48.170;11.724;2023-08-12T12:51:05;4.20;;;3.80;;
3487;SDS011;38546;48.170;11.724;2023-08-12T12:53:54;4.27;;;3.40;;
3487;SDS011;38546;48.170;11.724;2023-08-12T12:56:43;5.57;;;5.10;;
3487;SDS011;38546;48.170;11.724;2023-08-12T12:59:32;4.97;;;4.50;;
3487;SDS011;38546;48.170;11.724;2023-08-12T13:02:21;5.53;;;4.80;;
3487;SDS011;38546;48.170;11.724;2023-08-12T13:05:11;4.83;;;4.43;;
3487;SDS011;38546;48.170;11.724;2023-08-12T13:08:01;8.03;;;4.57;;
3487;SDS011;38546;48.170;11.724;2023-08-12T13:10:50;4.87;;;4.47;;
3487;SDS011;38546;48.170;11.724;2023-08-12T13:13:40;5.33;;;4.83;;
3487;SDS011;38546;48.170;11.724;2023-08-12T13:16:29;5.00;;;4.60;;
3487;SDS011;38546;48.170;11.724;2023-08-12T13:19:19;5.57;;;4.87;;
3487;SDS011;38546;48.170;11.724;2023-08-12T13:22:09;5.13;;;4.63;;
3487;SDS011;38546;48.170;11.724;2023-08-12T13:24:59;6.03;;;5.53;;
3487;SDS011;38546;48.170;11.724;2023-08-12T13:27:48;5.07;;;4.57;;
3487;SDS011;38546;48.170;11.724;2023-08-12T13:30:37;5.07;;;4.17;;
3487;SDS011;38546;48.170;11.724;2023-08-12T13:33:27;5.43;;;5.03;;
3487;SDS011;38546;48.170;11.724;2023-08-12T13:36:16;4.93;;;4.57;;
3487;SDS011;38546;48.170;11.724;2023-08-12T13:39:06;4.60;;;4.20;;
3487;SDS011;38546;48.170;11.724;2023-08-12T13:41:55;4.70;;;4.33;;
3487;SDS011;38546;48.170;11.724;2023-08-12T13:44:45;7.37;;;4.47;;
3487;SDS011;38546;48.170;11.724;2023-08-12T13:47:35;4.63;;;4.23;;
3487;SDS011;38546;48.170;11.724;2023-08-12T13:50:24;5.37;;;4.97;;
3487;SDS011;38546;48.170;11.724;2023-08-12T13:53:14;5.40;;;4.90;;
3487;SDS011;38546;48.170;11.724;2023-08-12T13:56:03;4.83;;;4.43;;
3487;SDS011;38546;48.170;11.724;2023-08-12T13:58:53;4.67;;;4.27;;
3487;SDS011;38546;48.170;11.724;2023-08-12T14:01:42;4.17;;;3.77;;
3487;SDS011;38546;48.170;11.724;2023-08-12T14:04:31;4.60;;;3.77;;
3487;SDS011;38546;48.170;11.724;2023-08-12T14:07:21;4.43;;;4.13;;
3487;SDS011;38546;48.170;11.724;2023-08-12T14:10:10;4.50;;;4.10;;
3487;SDS011;38546;48.170;11.724;2023-08-12T14:12:59;4.50;;;4.10;;
3487;SDS011;38546;48.170;11.724;2023-08-12T14:15:48;4.23;;;3.93;;
3487;SDS011;38546;48.170;11.724;2023-08-12T14:18:37;4.60;;;4.20;;
3487;SDS011;38546;48.170;11.724;2023-08-12T14:21:27;4.30;;;4.00;;
3487;SDS011;38546;48.170;11.724;2023-08-12T14:24:16;4.50;;;4.20;;
3487;SDS011;38546;48.170;11.724;2023-08-12T14:27:05;4.87;;;4.40;;
3487;SDS011;38546;48.170;11.724;2023-08-12T14:29:54;4.93;;;4.53;;
3487;SDS011;38546;48.170;11.724;2023-08-12T14:32:43;5.00;;;4.50;;
3487;SDS011;38546;48.170;11.724;2023-08-12T14:35:36;4.40;;;4.00;;
3487;SDS011;38546;48.170;11.724;2023-08-12T14:38:25;5.00;;;3.87;;
3487;SDS011;38546;48.170;11.724;2023-08-12T14:41:14;7.30;;;6.50;;
3487;SDS011;38546;48.170;11.724;2023-08-12T14:44:03;4.80;;;4.40;;
3487;SDS011;38546;48.170;11.724;2023-08-12T14:46:53;4.60;;;4.20;;
3487;SDS011;38546;48.170;11.724;2023-08-12T14:49:42;5.97;;;5.10;;
3487;SDS011;38546;48.170;11.724;2023-08-12T14:52:31;5.40;;;4.53;;
3487;SDS011;38546;48.170;11.724;2023-08-12T14:55:20;4.70;;;4.03;;
3487;SDS011;38546;48.170;11.724;2023-08-12T14:58:10;4.50;;;4.20;;
3487;SDS011;38546;48.170;11.724;2023-08-12T15:00:59;5.13;;;3.80;;
3487;SDS011;38546;48.170;11.724;2023-08-12T15:03:49;4.83;;;4.43;;
3487;SDS011;38546;48.170;11.724;2023-08-12T15:06:39;6.43;;;4.10;;
3487;SDS011;38546;48.170;11.724;2023-08-12T15:09:28;4.50;;;4.10;;
3487;SDS011;38546;48.170;11.724;2023-08-12T15:12:18;4.70;;;4.40;;
3487;SDS011;38546;48.170;11.724;2023-08-12T15:15:09;4.47;;;3.77;;
3487;SDS011;38546;48.170;11.724;2023-08-12T15:17:58;7.80;;;5.93;;
3487;SDS011;38546;48.170;11.724;2023-08-12T15:20:48;9.83;;;5.63;;
3487;SDS011;38546;48.170;11.724;2023-08-12T15:23:38;8.57;;;5.03;;
3487;SDS011;38546;48.170;11.724;2023-08-12T15:26:28;7.67;;;4.90;;
3487;SDS011;38546;48.170;11.724;2023-08-12T15:29:17;5.83;;;4.70;;
3487;SDS011;38546;48.170;11.724;2023-08-12T15:32:06;6.10;;;5.50;;
3487;SDS011;38546;48.170;11.724;2023-08-12T15:34:55;6.80;;;5.20;;
3487;SDS011;38546;48.170;11.724;2023-08-12T15:37:44;9.33;;;5.63;;
3487;SDS011;38546;48.170;11.724;2023-08-12T15:40:36;6.70;;;6.03;;
3487;SDS011;38546;48.170;11.724;2023-08-12T15:43:27;6.60;;;5.87;;
3487;SDS011;38546;48.170;11.724;2023-08-12T15:46:16;7.73;;;6.93;;
3487;SDS011;38546;48.170;11.724;2023-08-12T15:49:05;7.43;;;5.53;;
3487;SDS011;38546;48.170;11.724;2023-08-12T15:51:58;7.17;;;5.80;;
3487;SDS011;38546;48.170;11.724;2023-08-12T15:54:49;6.73;;;4.40;;
3487;SDS011;38546;48.170;11.724;2023-08-12T15:57:38;6.80;;;4.30;;
3487;SDS011;38546;48.170;11.724;2023-08-12T16:00:27;7.60;;;4.23;;
3487;SDS011;38546;48.170;11.724;2023-08-12T16:03:17;8.60;;;4.40;;
3487;SDS011;38546;48.170;11.724;2023-08-12T16:06:06;6.20;;;4.33;;
3487;SDS011;38546;48.170;11.724;2023-08-12T16:08:56;6.70;;;4.40;;
3487;SDS011;38546;48.170;11.724;2023-08-12T16:11:45;6.10;;;4.37;;
3487;SDS011;38546;48.170;11.724;2023-08-12T16:14:36;7.13;;;4.70;;
3487;SDS011;38546;48.170;11.724;2023-08-12T16:17:24;4.37;;;3.90;;
3487;SDS011;38546;48.170;11.724;2023-08-12T16:20:13;6.70;;;4.50;;
3487;SDS011;38546;48.170;11.724;2023-08-12T16:23:03;5.03;;;4.30;;
3487;SDS011;38546;48.170;11.724;2023-08-12T16:25:52;5.00;;;4.23;;
3487;SDS011;38546;48.170;11.724;2023-08-12T16:28:41;9.97;;;4.30;;
3487;SDS011;38546;48.170;11.724;2023-08-12T16:31:30;5.33;;;4.00;;
3487;SDS011;38546;48.170;11.724;2023-08-12T16:34:20;4.23;;;3.60;;
3487;SDS011;38546;48.170;11.724;2023-08-12T16:37:08;4.60;;;4.20;;
3487;SDS011;38546;48.170;11.724;2023-08-12T16:39:57;10.10;;;4.37;;
3487;SDS011;38546;48.170;11.724;2023-08-12T16:42:46;10.33;;;4.47;;
3487;SDS011;38546;48.170;11.724;2023-08-12T16:45:36;7.57;;;5.67;;
3487;SDS011;38546;48.170;11.724;2023-08-12T16:48:24;5.40;;;4.90;;
3487;SDS011;38546;48.170;11.724;2023-08-12T16:51:13;5.43;;;4.50;;
3487;SDS011;38546;48.170;11.724;2023-08-12T16:54:03;6.43;;;5.20;;
3487;SDS011;38546;48.170;11.724;2023-08-12T16:56:52;5.27;;;4.77;;
3487;SDS011;38546;48.170;11.724;2023-08-12T16:59:42;4.90;;;4.47;;
3487;SDS011;38546;48.170;11.724;2023-08-12T17:02:31;7.10;;;4.30;;
3487;SDS011;38546;48.170;11.724;2023-08-12T17:05:20;6.17;;;5.57;;